EVA185 ROAH-RCTP
Flight info
| Callsign | EVA185 |
|---|---|
| Flight time | N/A |
| Altitude | 36000 |
| Route | GANJU Y576 LILRA Y573 SEDKU R595 GRACE GRACE1A |
| Aircraft | A321/M-SDE3FGHIRWY/LB1 |
Departure
| Time | 2026-04-24 08:32 |
|---|---|
| Airport | Naha International Airport (ROAH) |
Arrival
| Time | N/A |
|---|---|
| Airport | Taiwan Taoyuan International Airport (RCTP) |
| Time | Latitude | Longitude | Altitude | Speed | Heading |
|---|---|---|---|---|---|
| 2026-04-24 08:18 | 26.20953 | 127.64966 | 23 ft | 0 kts | 88° |
| 2026-04-24 08:26 | 26.20953 | 127.64963 | 21 ft | 2 kts | 87° |
| 2026-04-24 08:27 | 26.20953 | 127.64959 | 21 ft | 3 kts | 88° |
| 2026-04-24 08:27 | 26.20952 | 127.64939 | 21 ft | 3 kts | 87° |
| 2026-04-24 08:27 | 26.20952 | 127.64918 | 21 ft | 3 kts | 88° |
| 2026-04-24 08:27 | 26.20953 | 127.64898 | 25 ft | 3 kts | 133° |
| 2026-04-24 08:28 | 26.20968 | 127.64887 | 22 ft | 3 kts | 175° |
| 2026-04-24 08:28 | 26.20987 | 127.64886 | 20 ft | 3 kts | 177° |
| 2026-04-24 08:28 | 26.21005 | 127.64885 | 21 ft | 3 kts | 177° |
| 2026-04-24 08:28 | 26.21023 | 127.64884 | 22 ft | 3 kts | 177° |
| 2026-04-24 08:29 | 26.21028 | 127.64883 | 21 ft | 0 kts | 177° |
| 2026-04-24 08:29 | 26.21024 | 127.64884 | 22 ft | 1 kts | 177° |
| 2026-04-24 08:30 | 26.21001 | 127.64885 | 21 ft | 5 kts | 177° |
| 2026-04-24 08:30 | 26.20956 | 127.64886 | 22 ft | 8 kts | 184° |
| 2026-04-24 08:30 | 26.20917 | 127.64841 | 20 ft | 10 kts | 247° |
| 2026-04-24 08:30 | 26.20909 | 127.64755 | 20 ft | 14 kts | 263° |
| 2026-04-24 08:31 | 26.20901 | 127.64632 | 16 ft | 16 kts | 267° |
| 2026-04-24 08:31 | 26.20872 | 127.64530 | 18 ft | 12 kts | 205° |
| 2026-04-24 08:31 | 26.20695 | 127.64536 | 19 ft | 56 kts | 178° |
| 2026-04-24 08:31 | 26.20070 | 127.64565 | 16 ft | 121 kts | 178° |
| 2026-04-24 08:32 | 26.19055 | 127.64613 | 19 ft | 169 kts | 178° |
| 2026-04-24 08:32 | 26.17819 | 127.64625 | 402 ft | 176 kts | 195° |
| 2026-04-24 08:32 | 26.16883 | 127.63861 | 1001 ft | 167 kts | 248° |
| 2026-04-24 08:32 | 26.16868 | 127.62656 | 1520 ft | 158 kts | 303° |
| 2026-04-24 08:33 | 26.17748 | 127.61997 | 1892 ft | 165 kts | 353° |
| 2026-04-24 08:33 | 26.18947 | 127.62268 | 2062 ft | 188 kts | 14° |
| 2026-04-24 08:33 | 26.20250 | 127.62722 | 2192 ft | 205 kts | 15° |
| 2026-04-24 08:33 | 26.21691 | 127.63218 | 2315 ft | 229 kts | 15° |
| 2026-04-24 08:34 | 26.23304 | 127.63766 | 2618 ft | 255 kts | 15° |
| 2026-04-24 08:34 | 26.25091 | 127.64315 | 3002 ft | 277 kts | 6° |
| 2026-04-24 08:34 | 26.27047 | 127.64031 | 3325 ft | 297 kts | 338° |
| 2026-04-24 08:34 | 26.28956 | 127.62983 | 3823 ft | 311 kts | 327° |
| 2026-04-24 08:35 | 26.30786 | 127.61671 | 4614 ft | 314 kts | 323° |
| 2026-04-24 08:35 | 26.32604 | 127.60293 | 5440 ft | 318 kts | 322° |
| 2026-04-24 08:35 | 26.34454 | 127.58922 | 6318 ft | 322 kts | 323° |
| 2026-04-24 08:35 | 26.36356 | 127.57578 | 7116 ft | 326 kts | 323° |
| 2026-04-24 08:36 | 26.38308 | 127.56261 | 7806 ft | 330 kts | 324° |
| 2026-04-24 08:36 | 26.40148 | 127.54750 | 8440 ft | 327 kts | 307° |
| 2026-04-24 08:36 | 26.41191 | 127.52543 | 9045 ft | 324 kts | 281° |
| 2026-04-24 08:36 | 26.41144 | 127.50058 | 9678 ft | 326 kts | 254° |
| 2026-04-24 08:37 | 26.40049 | 127.47836 | 10279 ft | 332 kts | 234° |
| 2026-04-24 08:37 | 26.38570 | 127.45843 | 10931 ft | 335 kts | 231° |
| 2026-04-24 08:37 | 26.37006 | 127.43909 | 11581 ft | 337 kts | 230° |
| 2026-04-24 08:37 | 26.35408 | 127.41983 | 12216 ft | 340 kts | 230° |
| 2026-04-24 08:38 | 26.33781 | 127.40054 | 12838 ft | 343 kts | 229° |
| 2026-04-24 08:38 | 26.32083 | 127.38168 | 13455 ft | 346 kts | 227° |
| 2026-04-24 08:38 | 26.30339 | 127.36303 | 14035 ft | 349 kts | 226° |
| 2026-04-24 08:38 | 26.28572 | 127.34430 | 14611 ft | 352 kts | 226° |
| 2026-04-24 08:39 | 26.26797 | 127.32538 | 15230 ft | 354 kts | 227° |
| 2026-04-24 08:39 | 26.25020 | 127.30622 | 15745 ft | 356 kts | 227° |
| 2026-04-24 08:39 | 26.23238 | 127.28685 | 16247 ft | 360 kts | 227° |
| 2026-04-24 08:39 | 26.21445 | 127.26727 | 16747 ft | 362 kts | 227° |
| 2026-04-24 08:40 | 26.19641 | 127.24752 | 17235 ft | 365 kts | 227° |
| 2026-04-24 08:40 | 26.17825 | 127.22764 | 17733 ft | 367 kts | 228° |
| 2026-04-24 08:40 | 26.16000 | 127.20771 | 18234 ft | 369 kts | 227° |
| 2026-04-24 08:40 | 26.14159 | 127.18764 | 18652 ft | 371 kts | 227° |
| 2026-04-24 08:41 | 26.12415 | 127.16651 | 19055 ft | 371 kts | 235° |
| 2026-04-24 08:41 | 26.10998 | 127.14259 | 19461 ft | 371 kts | 240° |
| 2026-04-24 08:41 | 26.09647 | 127.11853 | 19875 ft | 373 kts | 239° |
| 2026-04-24 08:41 | 26.08267 | 127.09404 | 20282 ft | 374 kts | 239° |
| 2026-04-24 08:42 | 26.06879 | 127.06946 | 20662 ft | 377 kts | 239° |
| 2026-04-24 08:42 | 26.05478 | 127.04470 | 21024 ft | 379 kts | 239° |
| 2026-04-24 08:42 | 26.04070 | 127.01986 | 21422 ft | 381 kts | 239° |
| 2026-04-24 08:42 | 26.02652 | 126.99490 | 21817 ft | 383 kts | 239° |
| 2026-04-24 08:43 | 26.01228 | 126.96981 | 22227 ft | 384 kts | 239° |
| 2026-04-24 08:43 | 25.99801 | 126.94464 | 22622 ft | 386 kts | 239° |
| 2026-04-24 08:43 | 25.98365 | 126.91933 | 23012 ft | 388 kts | 239° |
| 2026-04-24 08:43 | 25.96923 | 126.89391 | 23389 ft | 390 kts | 238° |
| 2026-04-24 08:44 | 25.95473 | 126.86838 | 23726 ft | 391 kts | 238° |
| 2026-04-24 08:44 | 25.94021 | 126.84278 | 24045 ft | 393 kts | 238° |
| 2026-04-24 08:44 | 25.92542 | 126.81673 | 24363 ft | 394 kts | 238° |
| 2026-04-24 08:44 | 25.91077 | 126.79099 | 24675 ft | 395 kts | 239° |
| 2026-04-24 08:45 | 25.89627 | 126.76552 | 24991 ft | 396 kts | 239° |
| 2026-04-24 08:45 | 25.88134 | 126.73928 | 25307 ft | 397 kts | 238° |
| 2026-04-24 08:45 | 25.86665 | 126.71331 | 25611 ft | 398 kts | 239° |
| 2026-04-24 08:45 | 25.85246 | 126.68684 | 25916 ft | 399 kts | 240° |
| 2026-04-24 08:46 | 25.83871 | 126.66005 | 26225 ft | 400 kts | 241° |
| 2026-04-24 08:46 | 25.82516 | 126.63304 | 26521 ft | 401 kts | 242° |
| 2026-04-24 08:46 | 25.81161 | 126.60591 | 26816 ft | 402 kts | 242° |
| 2026-04-24 08:46 | 25.79798 | 126.57879 | 27100 ft | 403 kts | 242° |
| 2026-04-24 08:47 | 25.78420 | 126.55161 | 27372 ft | 404 kts | 241° |
| 2026-04-24 08:47 | 25.77030 | 126.52444 | 27651 ft | 405 kts | 241° |
| 2026-04-24 08:47 | 25.75631 | 126.49725 | 27936 ft | 407 kts | 241° |
| 2026-04-24 08:47 | 25.74243 | 126.47037 | 28192 ft | 408 kts | 241° |
| 2026-04-24 08:48 | 25.72830 | 126.44307 | 28453 ft | 409 kts | 241° |
| 2026-04-24 08:48 | 25.71413 | 126.41569 | 28719 ft | 410 kts | 241° |
| 2026-04-24 08:48 | 25.69992 | 126.38823 | 28972 ft | 411 kts | 241° |
| 2026-04-24 08:48 | 25.68571 | 126.36072 | 29250 ft | 411 kts | 241° |
| 2026-04-24 08:49 | 25.67154 | 126.33328 | 29613 ft | 409 kts | 241° |
| 2026-04-24 08:49 | 25.65742 | 126.30595 | 29956 ft | 408 kts | 241° |
| 2026-04-24 08:49 | 25.64336 | 126.27875 | 30258 ft | 406 kts | 241° |
| 2026-04-24 08:49 | 25.62936 | 126.25166 | 30553 ft | 405 kts | 242° |
| 2026-04-24 08:50 | 25.61540 | 126.22466 | 30893 ft | 402 kts | 242° |
| 2026-04-24 08:50 | 25.60153 | 126.19785 | 31237 ft | 400 kts | 242° |
| 2026-04-24 08:50 | 25.58775 | 126.17119 | 31523 ft | 399 kts | 242° |
| 2026-04-24 08:50 | 25.57394 | 126.14449 | 31731 ft | 400 kts | 242° |
| 2026-04-24 08:51 | 25.56007 | 126.11774 | 31980 ft | 400 kts | 242° |
| 2026-04-24 08:51 | 25.54621 | 126.09106 | 32277 ft | 399 kts | 242° |
| 2026-04-24 08:51 | 25.53238 | 126.06446 | 32585 ft | 398 kts | 242° |
| 2026-04-24 08:51 | 25.51857 | 126.03795 | 32911 ft | 397 kts | 242° |
| 2026-04-24 08:52 | 25.50480 | 126.01153 | 33226 ft | 395 kts | 242° |
| 2026-04-24 08:52 | 25.49111 | 125.98523 | 33562 ft | 394 kts | 242° |
| 2026-04-24 08:52 | 25.47746 | 125.95898 | 33895 ft | 393 kts | 242° |
| 2026-04-24 08:52 | 25.46386 | 125.93288 | 34184 ft | 391 kts | 242° |
| 2026-04-24 08:53 | 25.45028 | 125.90681 | 34457 ft | 390 kts | 242° |
| 2026-04-24 08:53 | 25.43675 | 125.88086 | 34720 ft | 389 kts | 242° |
| 2026-04-24 08:53 | 25.42323 | 125.85495 | 34954 ft | 389 kts | 243° |
| 2026-04-24 08:53 | 25.40969 | 125.82902 | 35163 ft | 390 kts | 243° |
| 2026-04-24 08:54 | 25.39611 | 125.80304 | 35395 ft | 390 kts | 243° |
| 2026-04-24 08:54 | 25.38255 | 125.77712 | 35642 ft | 389 kts | 242° |
| 2026-04-24 08:54 | 25.36900 | 125.75127 | 35903 ft | 389 kts | 242° |
| 2026-04-24 08:55 | 25.34205 | 125.69990 | 35995 ft | 384 kts | 242° |
| 2026-04-24 08:55 | 25.31504 | 125.64906 | 35993 ft | 383 kts | 242° |
| 2026-04-24 08:56 | 25.28798 | 125.59845 | 35993 ft | 383 kts | 242° |
| 2026-04-24 08:56 | 25.26085 | 125.54778 | 35969 ft | 383 kts | 242° |
| 2026-04-24 08:57 | 25.23366 | 125.49687 | 36017 ft | 386 kts | 242° |
| 2026-04-24 08:57 | 25.20632 | 125.44571 | 36022 ft | 387 kts | 242° |
| 2026-04-24 08:58 | 25.17900 | 125.39463 | 36022 ft | 386 kts | 242° |
| 2026-04-24 08:58 | 25.15165 | 125.34362 | 36019 ft | 386 kts | 242° |
| 2026-04-24 08:59 | 25.12424 | 125.29270 | 36016 ft | 386 kts | 242° |
| 2026-04-24 08:59 | 25.09604 | 125.24238 | 36028 ft | 387 kts | 237° |
| 2026-04-24 09:00 | 25.06927 | 125.20277 | 35991 ft | 387 kts | 237° |
| 2026-04-24 09:00 | 25.03693 | 125.15519 | 35988 ft | 388 kts | 237° |
| 2026-04-24 09:01 | 25.00453 | 125.10766 | 35990 ft | 388 kts | 237° |
| 2026-04-24 09:01 | 24.97137 | 125.06065 | 35994 ft | 389 kts | 235° |
| 2026-04-24 09:02 | 24.93678 | 125.01461 | 35994 ft | 390 kts | 234° |
| 2026-04-24 09:02 | 24.90217 | 124.96863 | 35991 ft | 389 kts | 235° |
| 2026-04-24 09:03 | 24.86807 | 124.92287 | 35999 ft | 388 kts | 235° |
| 2026-04-24 09:03 | 24.84170 | 124.87217 | 35999 ft | 380 kts | 254° |
| 2026-04-24 09:04 | 24.83650 | 124.81466 | 36000 ft | 382 kts | 274° |
| 2026-04-24 09:04 | 24.84363 | 124.75655 | 35999 ft | 383 kts | 274° |
| 2026-04-24 09:05 | 24.85066 | 124.69849 | 36029 ft | 382 kts | 274° |
| 2026-04-24 09:05 | 24.85765 | 124.64052 | 36009 ft | 381 kts | 274° |
| 2026-04-24 09:06 | 24.86458 | 124.58267 | 36011 ft | 381 kts | 274° |
| 2026-04-24 09:06 | 24.87150 | 124.52488 | 36011 ft | 380 kts | 274° |
| 2026-04-24 09:07 | 24.87841 | 124.46715 | 36034 ft | 380 kts | 274° |
| 2026-04-24 09:07 | 24.88872 | 124.38063 | 36034 ft | 379 kts | 274° |
| 2026-04-24 09:08 | 24.89551 | 124.32309 | 36029 ft | 379 kts | 274° |
| 2026-04-24 09:08 | 24.90225 | 124.26564 | 36029 ft | 378 kts | 274° |
| 2026-04-24 09:09 | 24.90904 | 124.20823 | 36050 ft | 378 kts | 274° |
| 2026-04-24 09:09 | 24.91576 | 124.15084 | 36043 ft | 378 kts | 274° |
| 2026-04-24 09:10 | 24.92246 | 124.09348 | 36041 ft | 377 kts | 274° |
| 2026-04-24 09:10 | 24.92914 | 124.03615 | 36040 ft | 377 kts | 274° |
| 2026-04-24 09:11 | 24.93580 | 123.97887 | 36034 ft | 377 kts | 273° |
| 2026-04-24 09:11 | 24.94194 | 123.92165 | 36057 ft | 375 kts | 273° |
| 2026-04-24 09:12 | 24.94783 | 123.86418 | 36049 ft | 374 kts | 273° |
| 2026-04-24 09:12 | 24.95380 | 123.80725 | 36040 ft | 374 kts | 273° |
| 2026-04-24 09:13 | 24.95979 | 123.75033 | 36014 ft | 374 kts | 273° |
| 2026-04-24 09:13 | 24.96575 | 123.69366 | 36012 ft | 375 kts | 273° |
| 2026-04-24 09:14 | 24.97173 | 123.63657 | 36034 ft | 375 kts | 273° |
| 2026-04-24 09:14 | 24.97768 | 123.57952 | 36032 ft | 374 kts | 273° |
| 2026-04-24 09:15 | 24.98362 | 123.52252 | 36038 ft | 374 kts | 273° |
| 2026-04-24 09:15 | 24.98954 | 123.46552 | 36039 ft | 374 kts | 273° |
| 2026-04-24 09:16 | 24.99539 | 123.40851 | 36038 ft | 374 kts | 273° |
| 2026-04-24 09:16 | 25.00116 | 123.35151 | 36042 ft | 375 kts | 273° |
| 2026-04-24 09:17 | 25.00698 | 123.29443 | 36045 ft | 375 kts | 273° |
| 2026-04-24 09:17 | 25.01276 | 123.23739 | 36047 ft | 374 kts | 273° |
| 2026-04-24 09:18 | 25.01858 | 123.18037 | 36037 ft | 374 kts | 273° |
| 2026-04-24 09:18 | 25.02434 | 123.12339 | 36050 ft | 374 kts | 272° |
| 2026-04-24 09:19 | 25.03005 | 123.06650 | 36052 ft | 373 kts | 272° |
| 2026-04-24 09:19 | 25.03569 | 123.00965 | 36052 ft | 373 kts | 272° |
| 2026-04-24 09:20 | 25.04134 | 122.95283 | 36047 ft | 372 kts | 272° |
| 2026-04-24 09:20 | 25.04706 | 122.89607 | 36047 ft | 372 kts | 272° |
| 2026-04-24 09:21 | 25.05272 | 122.83934 | 36057 ft | 372 kts | 273° |
| 2026-04-24 09:21 | 25.05832 | 122.78262 | 36054 ft | 372 kts | 273° |
| 2026-04-24 09:22 | 25.06392 | 122.72591 | 36049 ft | 372 kts | 272° |
| 2026-04-24 09:22 | 25.06947 | 122.66924 | 36047 ft | 372 kts | 272° |
| 2026-04-24 09:23 | 25.07502 | 122.61261 | 36081 ft | 371 kts | 273° |
| 2026-04-24 09:23 | 25.08054 | 122.55587 | 36070 ft | 370 kts | 273° |